Flight Track Log - Related Links

Times and Time Zones

All times are in EDT time to prevent confusion due to time zone crossing. See the UAL5911 flight status page for this flight to view local times or setup timezone preferences in your user account.

Time Position Orientation Groundspeed Altitude Reporting Facility
EDT Latitude Longitude Course Direction KTS MPH feet Rate Location/Type
Fri 03:01:29 PM 41.9667 -87.9500 228° Southwest 172 198 2,400  Level Chicago TRACON
Fri 03:02:29 PM 41.9333 -88.0000 228° Southwest 209 241 4,400 1,020 Climbing Chicago TRACON
Fri 03:04:02 PM 41.8900 -88.1161 243° Southwest 218 251 5,000 232 Climbing Chicago Center
Fri 03:05:04 PM 41.8789 -88.2017 260° West 235 270 5,000 1,161 Level Chicago Center
Fri 03:06:06 PM 41.8975 -88.2922 285° West 259 298 7,400 2,274 Climbing Chicago Center
Fri 03:07:08 PM 41.9272 -88.3811 294° West 263 303 9,700 2,177 Climbing Chicago Center
Fri 03:08:10 PM 41.9422 -88.5039 279° West 280 322 11,900 1,645 Climbing Chicago Center
Fri 03:09:12 PM 41.9350 -88.6167 265° West 316 364 13,100 1,355 Climbing Chicago Center
Fri 03:10:14 PM 41.9006 -88.7278 247° West 327 376 14,700 1,344 Climbing Chicago Center
Fri 03:11:17 PM 41.8653 -88.8422 248° West 333 383 15,900 624 Climbing Chicago Center
Fri 03:12:19 PM 41.8133 -88.9583 239° Southwest 373 429 16,000 48 Climbing Chicago Center
Fri 03:13:21 PM 41.7350 -89.0931 232° Southwest 388 447 16,000  Level Chicago Center
Fri 03:14:23 PM 41.6586 -89.1931 224° Southwest 387 445 16,000  Level Chicago Center
Fri 03:15:25 PM 41.5833 -89.2975 226° Southwest 391 450 16,000 -48 Level Chicago Center
Fri 03:16:27 PM 41.5036 -89.3786 217° Southwest 399 459 15,900  Descending Chicago Center
Fri 03:17:29 PM 41.3758 -89.4308 197° South 399 459 16,000 -290 Climbing Chicago Center
Fri 03:18:31 PM 41.2692 -89.4692 195° South 399 459 15,300 -1,258 Descending Chicago Center
Fri 03:19:33 PM 41.1678 -89.5078 196° South 383 441 13,400 -1,839 Descending Chicago Center
Fri 03:20:35 PM 41.0706 -89.5436 196° South 367 422 11,500 -1,210 Descending Chicago Center
Fri 03:21:37 PM 40.9883 -89.5739 196° South 328 377 10,900 -1,210 Descending Chicago Center
Fri 03:22:39 PM 40.9200 -89.6000 196° South 286 329 9,000 -2,544 Descending Chicago Center
Fri 03:23:42 PM 40.8461 -89.6350 200° South 253 291 5,600 -2,832 Descending Chicago Center
Fri 03:24:44 PM 40.7878 -89.6233 171° South 232 267 3,100 -2,419 Descending Chicago Center

Login

Don't have an account? Register now (free) for customized features, flight alerts, and more!